sensor_id;sensor_type;location;lat;lon;timestamp;pressure;altitude;pressure_sealevel;temperature;humidity
71772;BME280;59606;52.138;5.424;2023-04-29T00:00:44;101585.09;;;9.98;98.19
71772;BME280;59606;52.138;5.424;2023-04-29T00:03:11;101588.66;;;9.95;98.36
71772;BME280;59606;52.138;5.424;2023-04-29T00:05:38;101590.41;;;9.95;98.60
71772;BME280;59606;52.138;5.424;2023-04-29T00:08:04;101586.88;;;9.96;98.58
71772;BME280;59606;52.138;5.424;2023-04-29T00:10:31;101595.63;;;9.95;98.39
71772;BME280;59606;52.138;5.424;2023-04-29T00:12:58;101597.50;;;9.91;98.65
71772;BME280;59606;52.138;5.424;2023-04-29T00:15:24;101591.50;;;9.89;98.70
71772;BME280;59606;52.138;5.424;2023-04-29T00:17:51;101596.78;;;9.87;99.20
71772;BME280;59606;52.138;5.424;2023-04-29T00:20:17;101595.72;;;9.91;99.03
71772;BME280;59606;52.138;5.424;2023-04-29T00:22:44;101597.63;;;9.88;98.58
71772;BME280;59606;52.138;5.424;2023-04-29T00:25:10;101595.97;;;9.85;98.58
71772;BME280;59606;52.138;5.424;2023-04-29T00:27:37;101602.81;;;9.88;99.02
71772;BME280;59606;52.138;5.424;2023-04-29T00:30:06;101604.56;;;9.87;99.18
71772;BME280;59606;52.138;5.424;2023-04-29T00:32:33;101607.25;;;9.86;98.74
71772;BME280;59606;52.138;5.424;2023-04-29T00:35:00;101615.06;;;9.86;98.32
71772;BME280;59606;52.138;5.424;2023-04-29T00:37:27;101615.94;;;9.85;98.40
71772;BME280;59606;52.138;5.424;2023-04-29T00:39:53;101619.28;;;9.88;98.71
71772;BME280;59606;52.138;5.424;2023-04-29T00:42:20;101615.00;;;9.87;98.55
71772;BME280;59606;52.138;5.424;2023-04-29T00:44:46;101623.63;;;9.88;99.00
71772;BME280;59606;52.138;5.424;2023-04-29T00:47:14;101628.91;;;9.86;99.13
71772;BME280;59606;52.138;5.424;2023-04-29T00:49:40;101629.06;;;9.82;98.57
71772;BME280;59606;52.138;5.424;2023-04-29T00:52:09;101625.72;;;9.80;98.85
71772;BME280;59606;52.138;5.424;2023-04-29T00:54:36;101625.81;;;9.77;99.42
71772;BME280;59606;52.138;5.424;2023-04-29T00:57:03;101627.50;;;9.78;99.02
71772;BME280;59606;52.138;5.424;2023-04-29T00:59:32;101626.66;;;9.77;99.64
71772;BME280;59606;52.138;5.424;2023-04-29T01:02:00;101629.16;;;9.80;99.70
71772;BME280;59606;52.138;5.424;2023-04-29T01:04:31;101636.97;;;9.80;99.31
71772;BME280;59606;52.138;5.424;2023-04-29T01:07:08;101639.50;;;9.82;99.63
71772;BME280;59606;52.138;5.424;2023-04-29T01:12:37;101639.44;;;9.83;99.28
71772;BME280;59606;52.138;5.424;2023-04-29T01:15:17;101642.28;;;9.77;99.51
71772;BME280;59606;52.138;5.424;2023-04-29T01:17:59;101651.97;;;9.74;99.30
71772;BME280;59606;52.138;5.424;2023-04-29T01:20:31;101651.13;;;9.73;99.00
71772;BME280;59606;52.138;5.424;2023-04-29T01:22:58;101658.00;;;9.74;99.25
71772;BME280;59606;52.138;5.424;2023-04-29T01:25:25;101663.13;;;9.76;99.21
71772;BME280;59606;52.138;5.424;2023-04-29T01:28:28;101663.31;;;9.71;98.79
71772;BME280;59606;52.138;5.424;2023-04-29T01:42:23;101667.72;;;9.69;99.26
71772;BME280;59606;52.138;5.424;2023-04-29T01:44:54;101667.72;;;9.69;99.45
71772;BME280;59606;52.138;5.424;2023-04-29T01:47:21;101670.19;;;9.74;99.42
71772;BME280;59606;52.138;5.424;2023-04-29T01:49:48;101674.47;;;9.75;99.33
71772;BME280;59606;52.138;5.424;2023-04-29T01:52:15;101670.22;;;9.72;98.86
71772;BME280;59606;52.138;5.424;2023-04-29T01:54:41;101677.97;;;9.74;99.13
71772;BME280;59606;52.138;5.424;2023-04-29T01:57:08;101675.38;;;9.74;99.27
71772;BME280;59606;52.138;5.424;2023-04-29T01:59:35;101678.03;;;9.72;99.24
71772;BME280;59606;52.138;5.424;2023-04-29T02:02:01;101680.63;;;9.72;99.07
71772;BME280;59606;52.138;5.424;2023-04-29T02:04:28;101681.63;;;9.70;98.88
71772;BME280;59606;52.138;5.424;2023-04-29T02:06:54;101682.50;;;9.68;98.65
71772;BME280;59606;52.138;5.424;2023-04-29T02:09:21;101686.84;;;9.68;98.73
71772;BME280;59606;52.138;5.424;2023-04-29T02:14:18;101690.19;;;9.72;98.83
71772;BME280;59606;52.138;5.424;2023-04-29T02:16:45;101692.78;;;9.72;98.75
71772;BME280;59606;52.138;5.424;2023-04-29T02:19:12;101691.16;;;9.69;99.59
71772;BME280;59606;52.138;5.424;2023-04-29T02:21:38;101704.16;;;9.69;99.03
71772;BME280;59606;52.138;5.424;2023-04-29T02:24:05;101702.44;;;9.70;99.12
71772;BME280;59606;52.138;5.424;2023-04-29T02:26:32;101704.13;;;9.71;98.64
71772;BME280;59606;52.138;5.424;2023-04-29T02:28:59;101707.63;;;9.70;98.55
71772;BME280;59606;52.138;5.424;2023-04-29T02:31:26;101707.56;;;9.71;98.49
71772;BME280;59606;52.138;5.424;2023-04-29T02:33:54;101709.25;;;9.72;98.36
71772;BME280;59606;52.138;5.424;2023-04-29T02:36:21;101711.84;;;9.72;98.60
71772;BME280;59606;52.138;5.424;2023-04-29T02:38:47;101714.41;;;9.74;98.21
71772;BME280;59606;52.138;5.424;2023-04-29T02:41:16;101722.22;;;9.74;98.44
71772;BME280;59606;52.138;5.424;2023-04-29T02:43:43;101727.41;;;9.74;98.61
71772;BME280;59606;52.138;5.424;2023-04-29T02:46:11;101723.97;;;9.73;98.31
71772;BME280;59606;52.138;5.424;2023-04-29T02:48:37;101734.38;;;9.73;98.28
71772;BME280;59606;52.138;5.424;2023-04-29T02:51:08;101731.78;;;9.73;97.90
71772;BME280;59606;52.138;5.424;2023-04-29T02:53:35;101742.19;;;9.73;98.41
71772;BME280;59606;52.138;5.424;2023-04-29T02:56:01;101737.94;;;9.71;97.84
71772;BME280;59606;52.138;5.424;2023-04-29T02:58:28;101739.63;;;9.72;97.67
71772;BME280;59606;52.138;5.424;2023-04-29T03:00:54;101738.75;;;9.73;98.29
71772;BME280;59606;52.138;5.424;2023-04-29T03:03:21;101743.06;;;9.72;98.24
71772;BME280;59606;52.138;5.424;2023-04-29T03:05:48;101742.22;;;9.72;97.85
71772;BME280;59606;52.138;5.424;2023-04-29T03:08:15;101752.72;;;9.70;97.97
71772;BME280;59606;52.138;5.424;2023-04-29T03:10:42;101745.75;;;9.71;97.72
71772;BME280;59606;52.138;5.424;2023-04-29T03:13:08;101747.50;;;9.70;98.13
71772;BME280;59606;52.138;5.424;2023-04-29T03:15:35;101752.72;;;9.70;97.58
71772;BME280;59606;52.138;5.424;2023-04-29T03:18:02;101758.03;;;9.67;97.20
71772;BME280;59606;52.138;5.424;2023-04-29T03:20:30;101762.38;;;9.66;98.01
71772;BME280;59606;52.138;5.424;2023-04-29T03:22:58;101756.25;;;9.67;97.27
71772;BME280;59606;52.138;5.424;2023-04-29T03:25:26;101761.41;;;9.69;97.48
71772;BME280;59606;52.138;5.424;2023-04-29T03:27:53;101770.13;;;9.68;97.51
71772;BME280;59606;52.138;5.424;2023-04-29T03:30:20;101765.03;;;9.65;96.87
71772;BME280;59606;52.138;5.424;2023-04-29T03:32:46;101771.13;;;9.64;96.62
71772;BME280;59606;52.138;5.424;2023-04-29T03:35:13;101765.09;;;9.63;96.50
71772;BME280;59606;52.138;5.424;2023-04-29T03:37:41;101759.03;;;9.63;96.59
71772;BME280;59606;52.138;5.424;2023-04-29T03:40:10;101764.19;;;9.64;96.28
71772;BME280;59606;52.138;5.424;2023-04-29T03:42:37;101774.59;;;9.64;96.20
71772;BME280;59606;52.138;5.424;2023-04-29T03:45:04;101771.97;;;9.64;96.14
71772;BME280;59606;52.138;5.424;2023-04-29T03:47:30;101776.28;;;9.65;95.60
71772;BME280;59606;52.138;5.424;2023-04-29T03:49:57;101779.06;;;9.61;95.23
71772;BME280;59606;52.138;5.424;2023-04-29T03:52:23;101783.34;;;9.62;95.54
71772;BME280;59606;52.138;5.424;2023-04-29T03:54:50;101781.63;;;9.62;94.90
71772;BME280;59606;52.138;5.424;2023-04-29T03:57:17;101783.31;;;9.63;94.58
71772;BME280;59606;52.138;5.424;2023-04-29T03:59:43;101785.91;;;9.63;94.71
71772;BME280;59606;52.138;5.424;2023-04-29T04:02:10;101784.25;;;9.61;93.96
71772;BME280;59606;52.138;5.424;2023-04-29T04:04:37;101790.38;;;9.60;93.77
71772;BME280;59606;52.138;5.424;2023-04-29T04:07:04;101794.66;;;9.61;92.95
71772;BME280;59606;52.138;5.424;2023-04-29T04:09:31;101796.41;;;9.60;92.76
71772;BME280;59606;52.138;5.424;2023-04-29T04:11:58;101802.44;;;9.62;92.88
71772;BME280;59606;52.138;5.424;2023-04-29T04:14:26;101798.09;;;9.61;92.85
71772;BME280;59606;52.138;5.424;2023-04-29T04:16:52;101799.94;;;9.59;92.45
71772;BME280;59606;52.138;5.424;2023-04-29T04:19:20;101803.38;;;9.60;92.82
71772;BME280;59606;52.138;5.424;2023-04-29T04:21:46;101810.38;;;9.58;92.39
71772;BME280;59606;52.138;5.424;2023-04-29T04:24:12;101811.22;;;9.58;92.52
71772;BME280;59606;52.138;5.424;2023-04-29T04:26:39;101804.41;;;9.56;92.13
71772;BME280;59606;52.138;5.424;2023-04-29T04:29:07;101806.94;;;9.57;92.33
71772;BME280;59606;52.138;5.424;2023-04-29T04:31:33;101812.13;;;9.57;92.11
71772;BME280;59606;52.138;5.424;2023-04-29T04:34:02;101806.94;;;9.57;91.97
71772;BME280;59606;52.138;5.424;2023-04-29T04:36:28;101812.13;;;9.57;92.18
71772;BME280;59606;52.138;5.424;2023-04-29T04:38:55;101818.16;;;9.59;92.06
71772;BME280;59606;52.138;5.424;2023-04-29T04:41:21;101814.72;;;9.57;92.10
71772;BME280;59606;52.138;5.424;2023-04-29T04:43:47;101825.13;;;9.57;91.76
71772;BME280;59606;52.138;5.424;2023-04-29T04:46:15;101835.47;;;9.59;91.82
71772;BME280;59606;52.138;5.424;2023-04-29T04:48:42;101837.19;;;9.60;92.35
71772;BME280;59606;52.138;5.424;2023-04-29T04:51:09;101836.28;;;9.61;92.39
71772;BME280;59606;52.138;5.424;2023-04-29T04:53:37;101847.53;;;9.61;92.44
71772;BME280;59606;52.138;5.424;2023-04-29T04:56:04;101850.22;;;9.60;92.60
71772;BME280;59606;52.138;5.424;2023-04-29T04:58:32;101852.72;;;9.63;92.52
71772;BME280;59606;52.138;5.424;2023-04-29T05:00:59;101858.75;;;9.63;92.59
71772;BME280;59606;52.138;5.424;2023-04-29T05:03:26;101856.09;;;9.65;92.96
71772;BME280;59606;52.138;5.424;2023-04-29T05:05:57;101870.75;;;9.67;93.09
71772;BME280;59606;52.138;5.424;2023-04-29T05:08:24;101862.03;;;9.68;93.06
71772;BME280;59606;52.138;5.424;2023-04-29T05:10:51;101864.59;;;9.70;92.79
71772;BME280;59606;52.138;5.424;2023-04-29T05:13:19;101870.66;;;9.71;92.61
71772;BME280;59606;52.138;5.424;2023-04-29T05:15:46;101877.50;;;9.73;93.05
71772;BME280;59606;52.138;5.424;2023-04-29T05:18:13;101874.91;;;9.73;92.75
71772;BME280;59606;52.138;5.424;2023-04-29T05:20:40;101881.69;;;9.77;93.31
71772;BME280;59606;52.138;5.424;2023-04-29T05:23:06;101879.94;;;9.78;93.21
71772;BME280;59606;52.138;5.424;2023-04-29T05:25:33;101883.28;;;9.81;93.00
71772;BME280;59606;52.138;5.424;2023-04-29T05:28:01;101883.16;;;9.84;93.18
71772;BME280;59606;52.138;5.424;2023-04-29T05:30:27;101887.47;;;9.85;93.50
71772;BME280;59606;52.138;5.424;2023-04-29T05:32:54;101885.75;;;9.86;93.36
71772;BME280;59606;52.138;5.424;2023-04-29T05:35:21;101887.25;;;9.91;93.36
71772;BME280;59606;52.138;5.424;2023-04-29T05:37:48;101889.75;;;9.95;92.83
71772;BME280;59606;52.138;5.424;2023-04-29T05:40:14;101898.31;;;9.98;93.28
71772;BME280;59606;52.138;5.424;2023-04-29T05:42:41;101900.00;;;9.99;92.71
71772;BME280;59606;52.138;5.424;2023-04-29T05:45:08;101905.91;;;10.04;92.74
71772;BME280;59606;52.138;5.424;2023-04-29T05:47:35;101897.88;;;10.10;93.78
71772;BME280;59606;52.138;5.424;2023-04-29T05:50:02;101905.50;;;10.15;92.97
71772;BME280;59606;52.138;5.424;2023-04-29T05:52:29;101906.25;;;10.19;92.79
71772;BME280;59606;52.138;5.424;2023-04-29T05:54:55;101904.38;;;10.22;92.49
71772;BME280;59606;52.138;5.424;2023-04-29T05:57:22;101908.56;;;10.28;92.37
71772;BME280;59606;52.138;5.424;2023-04-29T05:59:48;101915.44;;;10.30;92.30
71772;BME280;59606;52.138;5.424;2023-04-29T06:02:15;101919.53;;;10.36;92.49
71772;BME280;59606;52.138;5.424;2023-04-29T06:04:42;101922.03;;;10.39;92.43
71772;BME280;59606;52.138;5.424;2023-04-29T06:07:08;101926.25;;;10.43;92.52
71772;BME280;59606;52.138;5.424;2023-04-29T06:09:35;101930.47;;;10.46;92.55
71772;BME280;59606;52.138;5.424;2023-04-29T06:12:02;101931.38;;;10.45;92.49
71772;BME280;59606;52.138;5.424;2023-04-29T06:14:28;101934.00;;;10.45;92.57
71772;BME280;59606;52.138;5.424;2023-04-29T06:16:55;101934.81;;;10.47;92.15
71772;BME280;59606;52.138;5.424;2023-04-29T06:19:22;101940.63;;;10.53;92.62
71772;BME280;59606;52.138;5.424;2023-04-29T06:21:48;101947.34;;;10.59;92.85
71772;BME280;59606;52.138;5.424;2023-04-29T06:24:15;101954.50;;;10.54;92.11
71772;BME280;59606;52.138;5.424;2023-04-29T06:26:42;101953.59;;;10.55;92.21
71772;BME280;59606;52.138;5.424;2023-04-29T06:29:09;101955.34;;;10.54;91.93
71772;BME280;59606;52.138;5.424;2023-04-29T06:31:35;101959.53;;;10.58;92.11
71772;BME280;59606;52.138;5.424;2023-04-29T06:34:02;101959.53;;;10.58;91.56
71772;BME280;59606;52.138;5.424;2023-04-29T06:36:28;101955.78;;;10.66;92.07
71772;BME280;59606;52.138;5.424;2023-04-29T06:38:55;101965.97;;;10.73;91.54
71772;BME280;59606;52.138;5.424;2023-04-29T06:41:21;101963.16;;;10.78;91.62
71772;BME280;59606;52.138;5.424;2023-04-29T06:43:48;101971.91;;;10.77;91.08
71772;BME280;59606;52.138;5.424;2023-04-29T06:46:15;101984.13;;;10.75;90.86
71772;BME280;59606;52.138;5.424;2023-04-29T06:48:42;101992.69;;;10.78;90.67
71772;BME280;59606;52.138;5.424;2023-04-29T06:51:08;101986.50;;;10.81;90.74
71772;BME280;59606;52.138;5.424;2023-04-29T06:53:35;101998.41;;;10.88;90.03
71772;BME280;59606;52.138;5.424;2023-04-29T06:56:01;101998.19;;;10.94;89.84
71772;BME280;59606;52.138;5.424;2023-04-29T06:58:28;102002.91;;;11.06;89.84
71772;BME280;59606;52.138;5.424;2023-04-29T07:00:54;102000.81;;;11.16;89.60
71772;BME280;59606;52.138;5.424;2023-04-29T07:03:21;102002.63;;;11.14;88.52
71772;BME280;59606;52.138;5.424;2023-04-29T07:05:48;102004.28;;;11.17;88.47
71772;BME280;59606;52.138;5.424;2023-04-29T07:08:16;102003.13;;;11.24;87.68
71772;BME280;59606;52.138;5.424;2023-04-29T07:10:43;102011.09;;;11.21;87.15
71772;BME280;59606;52.138;5.424;2023-04-29T07:13:09;102016.22;;;11.22;86.96
71772;BME280;59606;52.138;5.424;2023-04-29T07:15:36;102020.47;;;11.25;86.86
71772;BME280;59606;52.138;5.424;2023-04-29T07:18:05;102020.41;;;11.26;86.66
71772;BME280;59606;52.138;5.424;2023-04-29T07:20:35;102022.78;;;11.32;86.59
71772;BME280;59606;52.138;5.424;2023-04-29T07:23:02;102031.19;;;11.41;85.97
71772;BME280;59606;52.138;5.424;2023-04-29T07:25:28;102030.78;;;11.50;85.67
71772;BME280;59606;52.138;5.424;2023-04-29T07:27:56;102037.66;;;11.52;85.05
71772;BME280;59606;52.138;5.424;2023-04-29T07:30:22;102041.91;;;11.55;84.56
71772;BME280;59606;52.138;5.424;2023-04-29T07:32:49;102048.78;;;11.57;84.42
71772;BME280;59606;52.138;5.424;2023-04-29T07:35:15;102045.06;;;11.63;84.72
71772;BME280;59606;52.138;5.424;2023-04-29T07:37:42;102050.28;;;11.63;83.34
71772;BME280;59606;52.138;5.424;2023-04-29T07:40:09;102051.41;;;11.57;83.47
71772;BME280;59606;52.138;5.424;2023-04-29T07:42:36;102053.00;;;11.60;82.91
71772;BME280;59606;52.138;5.424;2023-04-29T07:45:03;102055.69;;;11.59;82.90
71772;BME280;59606;52.138;5.424;2023-04-29T07:47:30;102061.84;;;11.57;81.92
71772;BME280;59606;52.138;5.424;2023-04-29T07:49:56;102055.38;;;11.66;82.98
71772;BME280;59606;52.138;5.424;2023-04-29T07:52:23;102068.75;;;11.80;82.88
71772;BME280;59606;52.138;5.424;2023-04-29T07:54:51;102064.16;;;11.87;81.96
71772;BME280;59606;52.138;5.424;2023-04-29T07:57:18;102066.78;;;11.87;80.53
71772;BME280;59606;52.138;5.424;2023-04-29T07:59:45;102069.00;;;11.96;81.34
71772;BME280;59606;52.138;5.424;2023-04-29T08:02:12;102071.09;;;12.09;80.27
71772;BME280;59606;52.138;5.424;2023-04-29T08:04:39;102069.34;;;12.09;78.78
71772;BME280;59606;52.138;5.424;2023-04-29T08:07:10;102080.25;;;12.19;78.75
71772;BME280;59606;52.138;5.424;2023-04-29T08:09:36;102083.56;;;12.24;77.32
71772;BME280;59606;52.138;5.424;2023-04-29T08:12:03;102076.22;;;12.32;76.68
71772;BME280;59606;52.138;5.424;2023-04-29T08:14:29;102079.22;;;12.43;75.74
71772;BME280;59606;52.138;5.424;2023-04-29T08:16:56;102085.69;;;12.55;76.14
71772;BME280;59606;52.138;5.424;2023-04-29T08:19:22;102083.41;;;12.68;77.99
71772;BME280;59606;52.138;5.424;2023-04-29T08:21:49;102090.91;;;12.76;76.51
71772;BME280;59606;52.138;5.424;2023-04-29T08:24:17;102099.22;;;12.65;75.84
71772;BME280;59606;52.138;5.424;2023-04-29T08:26:43;102098.09;;;12.50;75.20
71772;BME280;59606;52.138;5.424;2023-04-29T08:29:10;102101.19;;;12.39;75.28
71772;BME280;59606;52.138;5.424;2023-04-29T08:31:36;102096.44;;;12.27;75.50
71772;BME280;59606;52.138;5.424;2023-04-29T08:34:03;102093.06;;;12.25;75.19
71772;BME280;59606;52.138;5.424;2023-04-29T08:36:29;102094.50;;;12.32;75.35
71772;BME280;59606;52.138;5.424;2023-04-29T08:38:59;102092.75;;;12.53;76.58
71772;BME280;59606;52.138;5.424;2023-04-29T08:41:25;102093.44;;;12.77;75.34
71772;BME280;59606;52.138;5.424;2023-04-29T08:43:52;102104.94;;;12.93;73.94
71772;BME280;59606;52.138;5.424;2023-04-29T08:46:19;102098.38;;;13.04;74.00
71772;BME280;59606;52.138;5.424;2023-04-29T08:48:46;102094.91;;;13.03;74.41
71772;BME280;59606;52.138;5.424;2023-04-29T08:51:13;102103.16;;;12.94;74.08
71772;BME280;59606;52.138;5.424;2023-04-29T08:53:40;102105.91;;;12.91;74.22
71772;BME280;59606;52.138;5.424;2023-04-29T08:56:15;102102.53;;;12.89;73.55
71772;BME280;59606;52.138;5.424;2023-04-29T08:58:43;102110.84;;;12.78;72.74
71772;BME280;59606;52.138;5.424;2023-04-29T09:01:10;102111.84;;;12.76;73.08
71772;BME280;59606;52.138;5.424;2023-04-29T09:03:49;102115.88;;;12.62;72.63
71772;BME280;59606;52.138;5.424;2023-04-29T09:06:16;102118.00;;;12.54;72.94
71772;BME280;59606;52.138;5.424;2023-04-29T09:08:43;102115.88;;;12.62;73.55
71772;BME280;59606;52.138;5.424;2023-04-29T09:11:12;102123.00;;;12.79;73.83
71772;BME280;59606;52.138;5.424;2023-04-29T09:13:39;102120.53;;;12.76;73.13
71772;BME280;59606;52.138;5.424;2023-04-29T09:16:12;102126.47;;;12.80;72.77
71772;BME280;59606;52.138;5.424;2023-04-29T09:18:49;102129.19;;;12.97;73.94
71772;BME280;59606;52.138;5.424;2023-04-29T09:21:17;102131.22;;;12.90;72.41
71772;BME280;59606;52.138;5.424;2023-04-29T09:23:58;102129.06;;;13.00;72.96
71772;BME280;59606;52.138;5.424;2023-04-29T09:26:25;102132.47;;;13.21;72.47
71772;BME280;59606;52.138;5.424;2023-04-29T09:29:12;102131.03;;;13.34;70.87
71772;BME280;59606;52.138;5.424;2023-04-29T09:31:40;102128.00;;;13.25;70.57
71772;BME280;59606;52.138;5.424;2023-04-29T09:34:07;102127.84;;;13.28;71.69
71772;BME280;59606;52.138;5.424;2023-04-29T09:39:08;102135.09;;;13.21;72.00
71772;BME280;59606;52.138;5.424;2023-04-29T09:44:23;102140.31;;;13.41;70.76
71772;BME280;59606;52.138;5.424;2023-04-29T09:49:26;102139.38;;;13.61;68.34
71772;BME280;59606;52.138;5.424;2023-04-29T09:51:58;102146.81;;;13.71;68.62
71772;BME280;59606;52.138;5.424;2023-04-29T09:54:27;102139.38;;;13.61;68.11
71772;BME280;59606;52.138;5.424;2023-04-29T09:56:55;102143.56;;;13.65;68.88
71772;BME280;59606;52.138;5.424;2023-04-29T09:59:23;102143.38;;;13.87;69.17
71772;BME280;59606;52.138;5.424;2023-04-29T10:01:56;102145.56;;;13.97;67.33
71772;BME280;59606;52.138;5.424;2023-04-29T10:04:25;102143.91;;;14.13;65.92
71772;BME280;59606;52.138;5.424;2023-04-29T10:06:54;102143.09;;;14.30;67.96
71772;BME280;59606;52.138;5.424;2023-04-29T10:09:22;102139.41;;;14.51;67.59
71772;BME280;59606;52.138;5.424;2023-04-29T10:11:50;102147.81;;;14.58;64.70
71772;BME280;59606;52.138;5.424;2023-04-29T10:14:23;102141.03;;;14.54;67.11
71772;BME280;59606;52.138;5.424;2023-04-29T10:17:09;102144.31;;;14.40;66.36
71772;BME280;59606;52.138;5.424;2023-04-29T10:19:46;102154.00;;;14.21;65.40
71772;BME280;59606;52.138;5.424;2023-04-29T10:22:27;102144.63;;;14.34;66.75
71772;BME280;59606;52.138;5.424;2023-04-29T10:24:56;102138.94;;;14.60;65.78
71772;BME280;59606;52.138;5.424;2023-04-29T10:27:24;102156.66;;;14.90;66.77
71772;BME280;59606;52.138;5.424;2023-04-29T10:29:52;102144.06;;;14.97;62.87
71772;BME280;59606;52.138;5.424;2023-04-29T10:32:20;102147.41;;;14.83;64.53
71772;BME280;59606;52.138;5.424;2023-04-29T10:34:47;102152.03;;;14.78;63.10
71772;BME280;59606;52.138;5.424;2023-04-29T10:37:15;102153.44;;;14.68;64.44
71772;BME280;59606;52.138;5.424;2023-04-29T10:39:49;102156.72;;;14.55;64.77
71772;BME280;59606;52.138;5.424;2023-04-29T10:42:42;102152.44;;;14.35;64.17
71772;BME280;59606;52.138;5.424;2023-04-29T10:45:20;102150.09;;;14.47;65.43
71772;BME280;59606;52.138;5.424;2023-04-29T10:50:40;102161.44;;;14.99;64.20
71772;BME280;59606;52.138;5.424;2023-04-29T10:53:10;102160.66;;;14.97;63.71
71772;BME280;59606;52.138;5.424;2023-04-29T10:55:37;102152.38;;;15.05;65.05
71772;BME280;59606;52.138;5.424;2023-04-29T10:58:04;102152.53;;;15.19;63.25
71772;BME280;59606;52.138;5.424;2023-04-29T11:00:32;102154.94;;;15.22;63.11
71772;BME280;59606;52.138;5.424;2023-04-29T11:03:01;102156.47;;;15.11;61.90
71772;BME280;59606;52.138;5.424;2023-04-29T11:05:32;102155.41;;;14.97;61.66
71772;BME280;59606;52.138;5.424;2023-04-29T11:08:09;102152.16;;;14.92;62.65
71772;BME280;59606;52.138;5.424;2023-04-29T11:10:36;102149.03;;;14.85;62.07
71772;BME280;59606;52.138;5.424;2023-04-29T11:13:28;102154.06;;;14.73;62.39
71772;BME280;59606;52.138;5.424;2023-04-29T11:16:09;102153.94;;;14.92;63.73
71772;BME280;59606;52.138;5.424;2023-04-29T11:19:06;102150.38;;;15.10;62.02
71772;BME280;59606;52.138;5.424;2023-04-29T11:21:34;102162.34;;;14.98;61.44
71772;BME280;59606;52.138;5.424;2023-04-29T11:24:02;102154.84;;;15.08;61.74
71772;BME280;59606;52.138;5.424;2023-04-29T11:26:29;102156.25;;;15.31;61.57
71772;BME280;59606;52.138;5.424;2023-04-29T11:28:56;102153.38;;;15.51;59.09
71772;BME280;59606;52.138;5.424;2023-04-29T11:31:30;102145.75;;;15.31;59.54
71772;BME280;59606;52.138;5.424;2023-04-29T11:33:57;102157.19;;;15.30;59.71
71772;BME280;59606;52.138;5.424;2023-04-29T11:36:24;102154.72;;;15.27;59.26
71772;BME280;59606;52.138;5.424;2023-04-29T11:38:52;102156.63;;;15.56;61.22
71772;BME280;59606;52.138;5.424;2023-04-29T11:41:18;102154.13;;;15.71;59.75
71772;BME280;59606;52.138;5.424;2023-04-29T11:43:54;102156.66;;;15.88;59.43
71772;BME280;59606;52.138;5.424;2023-04-29T11:46:21;102155.63;;;16.07;60.16
71772;BME280;59606;52.138;5.424;2023-04-29T11:48:53;102157.84;;;16.29;57.96
71772;BME280;59606;52.138;5.424;2023-04-29T11:51:19;102150.69;;;16.16;56.52
71772;BME280;59606;52.138;5.424;2023-04-29T11:53:47;102151.53;;;16.17;56.85
71772;BME280;59606;52.138;5.424;2023-04-29T11:56:14;102155.41;;;16.25;58.66
71772;BME280;59606;52.138;5.424;2023-04-29T11:58:41;102159.19;;;16.36;57.79
71772;BME280;59606;52.138;5.424;2023-04-29T12:01:09;102162.38;;;16.26;55.99
71772;BME280;59606;52.138;5.424;2023-04-29T12:03:35;102157.69;;;16.32;57.20
71772;BME280;59606;52.138;5.424;2023-04-29T12:06:02;102166.47;;;16.46;55.70
71772;BME280;59606;52.138;5.424;2023-04-29T12:08:29;102160.81;;;16.53;56.86
71772;BME280;59606;52.138;5.424;2023-04-29T12:10:58;102160.41;;;16.60;56.39
71772;BME280;59606;52.138;5.424;2023-04-29T12:13:27;102164.69;;;16.47;56.16
71772;BME280;59606;52.138;5.424;2023-04-29T12:15:55;102164.94;;;16.42;55.33
71772;BME280;59606;52.138;5.424;2023-04-29T12:18:22;102158.31;;;16.51;55.77
71772;BME280;59606;52.138;5.424;2023-04-29T12:20:49;102152.72;;;16.71;56.02
71772;BME280;59606;52.138;5.424;2023-04-29T12:23:19;102149.56;;;16.81;55.64
71772;BME280;59606;52.138;5.424;2023-04-29T12:25:49;102160.56;;;16.87;54.52
71772;BME280;59606;52.138;5.424;2023-04-29T12:28:17;102150.28;;;16.83;55.64
71772;BME280;59606;52.138;5.424;2023-04-29T12:30:45;102154.16;;;16.77;56.01
71772;BME280;59606;52.138;5.424;2023-04-29T12:33:26;102151.28;;;16.66;56.62
71772;BME280;59606;52.138;5.424;2023-04-29T12:35:54;102153.22;;;16.78;57.20
71772;BME280;59606;52.138;5.424;2023-04-29T12:38:23;102149.47;;;16.82;57.21
71772;BME280;59606;52.138;5.424;2023-04-29T12:40:57;102156.94;;;16.74;57.02
71772;BME280;59606;52.138;5.424;2023-04-29T12:43:28;102154.66;;;16.54;57.55
71772;BME280;59606;52.138;5.424;2023-04-29T12:46:03;102159.03;;;16.53;57.05
71772;BME280;59606;52.138;5.424;2023-04-29T12:48:32;102161.25;;;16.61;57.06
71772;BME280;59606;52.138;5.424;2023-04-29T12:51:03;102160.28;;;16.62;56.65
71772;BME280;59606;52.138;5.424;2023-04-29T12:53:30;102156.78;;;16.77;57.40
71772;BME280;59606;52.138;5.424;2023-04-29T12:55:57;102157.47;;;16.81;56.15
71772;BME280;59606;52.138;5.424;2023-04-29T12:58:23;102160.97;;;16.65;55.68
71772;BME280;59606;52.138;5.424;2023-04-29T13:00:50;102163.16;;;16.43;57.12
71772;BME280;59606;52.138;5.424;2023-04-29T13:03:17;102169.19;;;16.45;56.92
71772;BME280;59606;52.138;5.424;2023-04-29T13:05:47;102168.28;;;16.60;55.35
71772;BME280;59606;52.138;5.424;2023-04-29T13:08:17;102174.97;;;16.66;55.77
71772;BME280;59606;52.138;5.424;2023-04-29T13:10:44;102171.75;;;16.61;55.98
71772;BME280;59606;52.138;5.424;2023-04-29T13:13:11;102167.47;;;16.74;55.00
71772;BME280;59606;52.138;5.424;2023-04-29T13:15:37;102173.91;;;16.84;57.58
71772;BME280;59606;52.138;5.424;2023-04-29T13:18:07;102171.22;;;17.00;56.60
71772;BME280;59606;52.138;5.424;2023-04-29T13:20:34;102171.88;;;17.18;53.25
71772;BME280;59606;52.138;5.424;2023-04-29T13:23:07;102181.44;;;17.19;53.88
71772;BME280;59606;52.138;5.424;2023-04-29T13:25:34;102175.06;;;17.09;51.94
71772;BME280;59606;52.138;5.424;2023-04-29T13:28:01;102167.69;;;17.00;53.79